MMBTMMZH

Guest
Details From MMBT - Bahias de Huatulco Intl
To MMZH - IXTAPA ZIHUATANEJO INTL
Flight Number -
Tags generated
Created
Modified
Stats Distance 321 nm / 594 km
Max Altitude 27,900 ft / 8,504 m
Waypoints 6
Social Downloads 0
Likes 0
Share VATSIM

Download

Looking for another format? Having issues loading an existing format? Contact us
Advertisement - Login to hide

Notes

Basic altitude profile: - Ascent Rate: 1500ft/min - Ascent Speed: 250kts - Cruise Altitude: 35000ft - Cruise Speed: 420kts - Descent Rate: 1500ft/min - Descent Speed: 250kts Options: - Use NATs: yes - Use PACOTS: yes - Use low airways: yes - Use high airways: yes

Route

MMBT PXM J1 NICOS MMZH

ID Type Via Altitude (ft/m) Position (lat/lon) Dist (leg/tot) Name
O MMBT APT - 0 / 0 15.77550 / -96.26120 - / 0 nm Bahias de Huatulco Intl
PXM VOR - 10,200 / 3,109 15.87510 / -97.08170 47 / 47 nm ESCONDIDO (PUERTO ESCONDIDO)
KATRA FIX J1 (AWY-HI) 27,900 / 8,504 16.65170 / -99.42420 142 / 190 nm
ACA VOR J1 (AWY-HI) 23,600 / 7,193 16.75850 / -99.75400 20 / 210 nm ACAPULCO
NICOS FIX J1 (AWY-HI) 18,200 / 5,547 16.95000 / -100.14100 25 / 235 nm
O MMZH APT - 0 / 0 17.60160 / -101.46100 85 / 320 nm IXTAPA ZIHUATANEJO INTL

Altitude Profile

Advertisement - Login to hide

Weather


0- 5 10 15 20 25 30 35+ Temperature / °C

Clouds and Precipitation
Forecast for 2020-01-29 18:00 UTC. Updated 4 hours ago

Ground ~20,000 ft ~40,000 ft Winds

MMBT

Details ICAO MMBT (HUX)
Name Bahias de Huatulco Intl
Region Mexico
Timezone America/Mexico_City (UTC-6.0)
Stats Elevation 464 ft / 141 m (AMSL)
Location 15.775500° -96.261200°
Runways 1
Magnetic Variation 3.419° E

METAR

MMBT 291852Z 09015KT 7SM SCT030 28/21 A2992 RMK 8/100

Decode

TAF

TAF MMBT 291556Z 2918/3018 16008KT P6SM SCT020 BECMG 2919/2920 BKN015 BKN070 TEMPO 2921/3001 4SM RA FM300300 20005KT P6SM SCT015 BKN070 TEMPO 3004/3008 5SM RA FM301600 20006KT P6SM SCT070

Decode

Departure Runways

ID Width Length Bearing (true/mag) Surface Threshold Overrun Markings Lighting
07 148 ft / 45 m 9,832 ft / 2,997 m 79.25° / 75.83° ASPHALT 0 ft / 0 m 0 ft / 0 m PREC-APP EDGE THRESHOLD
25 148 ft / 45 m 9,832 ft / 2,997 m 259.26° / 255.84° ASPHALT 0 ft / 0 m 0 ft / 0 m PREC-APP EDGE THRESHOLD

MMZH

Details ICAO MMZH (ZIH)
Name IXTAPA ZIHUATANEJO INTL
Region Mexico
Timezone America/Mexico_City (UTC-6.0)
Stats Elevation 24 ft / 7 m (AMSL)
Location 17.601600° -101.461000°
Runways 1
Magnetic Variation 5.382° E

METAR

Not found

TAF

TAF MMZH 291556Z 2918/3018 23008KT P6SM SKC FM300300 04005KT P6SM SCT020 SCT250 FM301600 22006KT P6SM SCT250

Decode

Destination Runways

ID Width Length Bearing (true/mag) Surface Threshold Overrun Markings Lighting
08 197 ft / 60 m 8,207 ft / 2,502 m 91.56° / 86.18° ASPHALT 0 ft / 0 m 0 ft / 0 m PREC-APP EDGE THRESHOLD
26 197 ft / 60 m 8,207 ft / 2,502 m 271.57° / 266.19° ASPHALT 0 ft / 0 m 0 ft / 0 m PREC-APP EDGE THRESHOLD

Popular Alternatives